sensor_id;sensor_type;location;lat;lon;timestamp;P1;durP1;ratioP1;P2;durP2;ratioP2
12385;SDS011;6257;57.634;18.310;2023-03-15T00:01:00;1.80;;;0.73;;
12385;SDS011;6257;57.634;18.310;2023-03-15T00:03:28;1.47;;;0.57;;
12385;SDS011;6257;57.634;18.310;2023-03-15T00:05:56;1.97;;;0.40;;
12385;SDS011;6257;57.634;18.310;2023-03-15T00:08:26;0.60;;;0.50;;
12385;SDS011;6257;57.634;18.310;2023-03-15T00:10:53;3.07;;;0.97;;
12385;SDS011;6257;57.634;18.310;2023-03-15T00:13:21;1.13;;;0.60;;
12385;SDS011;6257;57.634;18.310;2023-03-15T00:15:49;2.13;;;0.70;;
12385;SDS011;6257;57.634;18.310;2023-03-15T00:18:18;2.93;;;0.70;;
12385;SDS011;6257;57.634;18.310;2023-03-15T00:20:45;1.70;;;0.60;;
12385;SDS011;6257;57.634;18.310;2023-03-15T00:23:13;0.43;;;0.40;;
12385;SDS011;6257;57.634;18.310;2023-03-15T00:25:42;0.83;;;0.60;;
12385;SDS011;6257;57.634;18.310;2023-03-15T00:28:10;2.37;;;0.73;;
12385;SDS011;6257;57.634;18.310;2023-03-15T00:30:38;1.07;;;0.60;;
12385;SDS011;6257;57.634;18.310;2023-03-15T00:33:05;1.83;;;0.67;;
12385;SDS011;6257;57.634;18.310;2023-03-15T00:35:36;1.70;;;0.47;;
12385;SDS011;6257;57.634;18.310;2023-03-15T00:38:05;1.80;;;0.70;;
12385;SDS011;6257;57.634;18.310;2023-03-15T00:40:32;1.10;;;0.57;;
12385;SDS011;6257;57.634;18.310;2023-03-15T00:42:59;1.63;;;0.57;;
12385;SDS011;6257;57.634;18.310;2023-03-15T00:45:27;1.40;;;0.63;;
12385;SDS011;6257;57.634;18.310;2023-03-15T00:47:56;2.20;;;0.50;;
12385;SDS011;6257;57.634;18.310;2023-03-15T00:50:23;1.00;;;0.70;;
12385;SDS011;6257;57.634;18.310;2023-03-15T00:52:50;1.03;;;0.63;;
12385;SDS011;6257;57.634;18.310;2023-03-15T00:55:18;0.80;;;0.43;;
12385;SDS011;6257;57.634;18.310;2023-03-15T00:57:45;0.83;;;0.60;;
12385;SDS011;6257;57.634;18.310;2023-03-15T01:00:14;1.20;;;0.60;;
12385;SDS011;6257;57.634;18.310;2023-03-15T01:02:47;3.13;;;0.50;;
12385;SDS011;6257;57.634;18.310;2023-03-15T01:05:16;1.03;;;0.40;;
12385;SDS011;6257;57.634;18.310;2023-03-15T01:07:43;0.63;;;0.50;;
12385;SDS011;6257;57.634;18.310;2023-03-15T01:10:11;1.20;;;0.70;;
12385;SDS011;6257;57.634;18.310;2023-03-15T01:12:39;3.13;;;0.90;;
12385;SDS011;6257;57.634;18.310;2023-03-15T01:15:07;2.97;;;0.70;;
12385;SDS011;6257;57.634;18.310;2023-03-15T01:17:36;2.27;;;0.80;;
12385;SDS011;6257;57.634;18.310;2023-03-15T01:20:04;0.73;;;0.60;;
12385;SDS011;6257;57.634;18.310;2023-03-15T01:22:33;1.70;;;0.57;;
12385;SDS011;6257;57.634;18.310;2023-03-15T01:25:01;1.10;;;0.63;;
12385;SDS011;6257;57.634;18.310;2023-03-15T01:27:28;3.07;;;0.60;;
12385;SDS011;6257;57.634;18.310;2023-03-15T01:29:55;1.13;;;0.70;;
12385;SDS011;6257;57.634;18.310;2023-03-15T01:32:22;1.53;;;0.60;;
12385;SDS011;6257;57.634;18.310;2023-03-15T01:34:49;0.83;;;0.30;;
12385;SDS011;6257;57.634;18.310;2023-03-15T01:37:16;3.27;;;0.63;;
12385;SDS011;6257;57.634;18.310;2023-03-15T01:39:47;2.87;;;0.60;;
12385;SDS011;6257;57.634;18.310;2023-03-15T01:42:14;2.20;;;0.87;;
12385;SDS011;6257;57.634;18.310;2023-03-15T01:44:49;0.63;;;0.50;;
12385;SDS011;6257;57.634;18.310;2023-03-15T01:47:18;1.77;;;0.60;;
12385;SDS011;6257;57.634;18.310;2023-03-15T01:49:47;1.83;;;0.50;;
12385;SDS011;6257;57.634;18.310;2023-03-15T01:52:18;1.83;;;0.47;;
12385;SDS011;6257;57.634;18.310;2023-03-15T01:54:49;1.10;;;0.63;;
12385;SDS011;6257;57.634;18.310;2023-03-15T01:57:19;1.37;;;0.60;;
12385;SDS011;6257;57.634;18.310;2023-03-15T01:59:51;1.97;;;0.73;;
12385;SDS011;6257;57.634;18.310;2023-03-15T02:02:22;1.93;;;0.77;;
12385;SDS011;6257;57.634;18.310;2023-03-15T02:04:52;1.20;;;0.60;;
12385;SDS011;6257;57.634;18.310;2023-03-15T02:07:23;1.67;;;0.50;;
12385;SDS011;6257;57.634;18.310;2023-03-15T02:09:56;2.10;;;0.70;;
12385;SDS011;6257;57.634;18.310;2023-03-15T02:12:26;2.67;;;0.80;;
12385;SDS011;6257;57.634;18.310;2023-03-15T02:14:57;2.13;;;0.50;;
12385;SDS011;6257;57.634;18.310;2023-03-15T02:17:27;2.23;;;0.50;;
12385;SDS011;6257;57.634;18.310;2023-03-15T02:20:00;1.83;;;0.50;;
12385;SDS011;6257;57.634;18.310;2023-03-15T02:22:38;2.43;;;0.57;;
12385;SDS011;6257;57.634;18.310;2023-03-15T02:25:14;2.47;;;0.60;;
12385;SDS011;6257;57.634;18.310;2023-03-15T02:27:48;2.17;;;0.57;;
12385;SDS011;6257;57.634;18.310;2023-03-15T02:30:17;1.20;;;0.50;;
12385;SDS011;6257;57.634;18.310;2023-03-15T02:32:44;1.43;;;0.57;;
12385;SDS011;6257;57.634;18.310;2023-03-15T02:35:12;1.00;;;0.50;;
12385;SDS011;6257;57.634;18.310;2023-03-15T02:37:49;1.33;;;0.60;;
12385;SDS011;6257;57.634;18.310;2023-03-15T02:40:17;0.43;;;0.40;;
12385;SDS011;6257;57.634;18.310;2023-03-15T02:42:45;1.60;;;0.50;;
12385;SDS011;6257;57.634;18.310;2023-03-15T02:45:15;0.53;;;0.40;;
12385;SDS011;6257;57.634;18.310;2023-03-15T02:47:43;1.90;;;0.60;;
12385;SDS011;6257;57.634;18.310;2023-03-15T02:50:11;1.37;;;0.57;;
12385;SDS011;6257;57.634;18.310;2023-03-15T02:52:38;0.83;;;0.40;;
12385;SDS011;6257;57.634;18.310;2023-03-15T02:55:06;0.50;;;0.40;;
12385;SDS011;6257;57.634;18.310;2023-03-15T02:57:34;0.70;;;0.60;;
12385;SDS011;6257;57.634;18.310;2023-03-15T03:00:02;0.60;;;0.50;;
12385;SDS011;6257;57.634;18.310;2023-03-15T03:02:40;2.73;;;0.50;;
12385;SDS011;6257;57.634;18.310;2023-03-15T03:05:08;1.63;;;0.60;;
12385;SDS011;6257;57.634;18.310;2023-03-15T03:07:35;2.47;;;0.90;;
12385;SDS011;6257;57.634;18.310;2023-03-15T03:10:03;1.07;;;0.50;;
12385;SDS011;6257;57.634;18.310;2023-03-15T03:12:31;0.47;;;0.40;;
12385;SDS011;6257;57.634;18.310;2023-03-15T03:14:58;0.90;;;0.47;;
12385;SDS011;6257;57.634;18.310;2023-03-15T03:17:27;1.10;;;0.50;;
12385;SDS011;6257;57.634;18.310;2023-03-15T03:19:55;0.93;;;0.63;;
12385;SDS011;6257;57.634;18.310;2023-03-15T03:22:24;0.60;;;0.40;;
12385;SDS011;6257;57.634;18.310;2023-03-15T03:24:51;1.17;;;0.40;;
12385;SDS011;6257;57.634;18.310;2023-03-15T03:27:18;0.87;;;0.70;;
12385;SDS011;6257;57.634;18.310;2023-03-15T03:29:45;1.03;;;0.40;;
12385;SDS011;6257;57.634;18.310;2023-03-15T03:32:13;1.90;;;0.57;;
12385;SDS011;6257;57.634;18.310;2023-03-15T03:34:40;2.07;;;0.87;;
12385;SDS011;6257;57.634;18.310;2023-03-15T03:37:13;1.00;;;0.40;;
12385;SDS011;6257;57.634;18.310;2023-03-15T03:39:42;1.20;;;0.40;;
12385;SDS011;6257;57.634;18.310;2023-03-15T03:42:10;1.43;;;0.57;;
12385;SDS011;6257;57.634;18.310;2023-03-15T03:44:38;2.40;;;0.50;;
12385;SDS011;6257;57.634;18.310;2023-03-15T03:47:05;2.27;;;0.50;;
12385;SDS011;6257;57.634;18.310;2023-03-15T03:49:33;0.30;;;0.20;;
12385;SDS011;6257;57.634;18.310;2023-03-15T03:52:00;0.77;;;0.50;;
12385;SDS011;6257;57.634;18.310;2023-03-15T03:54:29;0.93;;;0.40;;
12385;SDS011;6257;57.634;18.310;2023-03-15T03:56:57;0.33;;;0.33;;
12385;SDS011;6257;57.634;18.310;2023-03-15T03:59:24;0.40;;;0.40;;
12385;SDS011;6257;57.634;18.310;2023-03-15T04:01:51;0.60;;;0.40;;
12385;SDS011;6257;57.634;18.310;2023-03-15T04:04:18;1.43;;;0.40;;
12385;SDS011;6257;57.634;18.310;2023-03-15T04:06:45;1.80;;;0.50;;
12385;SDS011;6257;57.634;18.310;2023-03-15T04:09:15;2.20;;;0.80;;
12385;SDS011;6257;57.634;18.310;2023-03-15T04:11:44;2.27;;;0.70;;
12385;SDS011;6257;57.634;18.310;2023-03-15T04:14:11;2.10;;;0.40;;
12385;SDS011;6257;57.634;18.310;2023-03-15T04:16:39;1.70;;;0.50;;
12385;SDS011;6257;57.634;18.310;2023-03-15T04:19:06;1.80;;;0.50;;
12385;SDS011;6257;57.634;18.310;2023-03-15T04:21:34;0.97;;;0.60;;
12385;SDS011;6257;57.634;18.310;2023-03-15T04:24:02;2.90;;;0.60;;
12385;SDS011;6257;57.634;18.310;2023-03-15T04:26:31;1.90;;;0.60;;
12385;SDS011;6257;57.634;18.310;2023-03-15T04:29:00;2.20;;;0.47;;
12385;SDS011;6257;57.634;18.310;2023-03-15T04:31:28;3.63;;;0.57;;
12385;SDS011;6257;57.634;18.310;2023-03-15T04:34:01;2.70;;;0.67;;
12385;SDS011;6257;57.634;18.310;2023-03-15T04:36:29;2.17;;;0.60;;
12385;SDS011;6257;57.634;18.310;2023-03-15T04:38:56;1.17;;;0.50;;
12385;SDS011;6257;57.634;18.310;2023-03-15T04:41:30;1.80;;;0.60;;
12385;SDS011;6257;57.634;18.310;2023-03-15T04:44:01;0.77;;;0.50;;
12385;SDS011;6257;57.634;18.310;2023-03-15T04:46:28;0.90;;;0.50;;
12385;SDS011;6257;57.634;18.310;2023-03-15T04:48:56;0.93;;;0.60;;
12385;SDS011;6257;57.634;18.310;2023-03-15T04:51:23;0.83;;;0.50;;
12385;SDS011;6257;57.634;18.310;2023-03-15T04:53:51;2.37;;;0.50;;
12385;SDS011;6257;57.634;18.310;2023-03-15T04:56:18;1.43;;;0.60;;
12385;SDS011;6257;57.634;18.310;2023-03-15T04:58:45;5.23;;;0.70;;
12385;SDS011;6257;57.634;18.310;2023-03-15T05:01:13;0.70;;;0.40;;
12385;SDS011;6257;57.634;18.310;2023-03-15T05:03:41;2.10;;;0.97;;
12385;SDS011;6257;57.634;18.310;2023-03-15T05:06:08;3.60;;;0.83;;
12385;SDS011;6257;57.634;18.310;2023-03-15T05:08:35;2.37;;;0.63;;
12385;SDS011;6257;57.634;18.310;2023-03-15T05:11:03;1.53;;;0.60;;
12385;SDS011;6257;57.634;18.310;2023-03-15T05:13:30;1.47;;;0.50;;
12385;SDS011;6257;57.634;18.310;2023-03-15T05:15:57;3.23;;;0.70;;
12385;SDS011;6257;57.634;18.310;2023-03-15T05:18:26;1.03;;;0.50;;
12385;SDS011;6257;57.634;18.310;2023-03-15T05:20:54;6.70;;;1.00;;
12385;SDS011;6257;57.634;18.310;2023-03-15T05:23:21;1.30;;;0.60;;
12385;SDS011;6257;57.634;18.310;2023-03-15T05:25:49;1.97;;;0.60;;
12385;SDS011;6257;57.634;18.310;2023-03-15T05:28:19;1.60;;;0.53;;
12385;SDS011;6257;57.634;18.310;2023-03-15T05:30:46;3.47;;;0.50;;
12385;SDS011;6257;57.634;18.310;2023-03-15T05:33:14;1.93;;;0.60;;
12385;SDS011;6257;57.634;18.310;2023-03-15T05:35:43;2.77;;;0.60;;
12385;SDS011;6257;57.634;18.310;2023-03-15T05:38:10;2.00;;;0.73;;
12385;SDS011;6257;57.634;18.310;2023-03-15T05:40:39;2.43;;;0.50;;
12385;SDS011;6257;57.634;18.310;2023-03-15T05:43:07;2.67;;;0.70;;
12385;SDS011;6257;57.634;18.310;2023-03-15T05:45:34;2.90;;;0.70;;
12385;SDS011;6257;57.634;18.310;2023-03-15T05:48:01;2.70;;;0.80;;
12385;SDS011;6257;57.634;18.310;2023-03-15T05:50:29;3.00;;;1.10;;
12385;SDS011;6257;57.634;18.310;2023-03-15T05:52:58;3.13;;;0.80;;
12385;SDS011;6257;57.634;18.310;2023-03-15T05:55:28;2.43;;;0.50;;
12385;SDS011;6257;57.634;18.310;2023-03-15T05:57:55;5.27;;;0.60;;
12385;SDS011;6257;57.634;18.310;2023-03-15T06:00:22;2.43;;;1.00;;
12385;SDS011;6257;57.634;18.310;2023-03-15T06:02:49;1.17;;;0.53;;
12385;SDS011;6257;57.634;18.310;2023-03-15T06:05:16;1.07;;;0.67;;
12385;SDS011;6257;57.634;18.310;2023-03-15T06:07:44;1.80;;;0.70;;
12385;SDS011;6257;57.634;18.310;2023-03-15T06:10:12;1.87;;;0.60;;
12385;SDS011;6257;57.634;18.310;2023-03-15T06:12:39;1.97;;;0.50;;
12385;SDS011;6257;57.634;18.310;2023-03-15T06:15:07;3.10;;;0.70;;
12385;SDS011;6257;57.634;18.310;2023-03-15T06:17:34;1.70;;;0.73;;
12385;SDS011;6257;57.634;18.310;2023-03-15T06:20:02;2.27;;;0.80;;
12385;SDS011;6257;57.634;18.310;2023-03-15T06:22:29;2.40;;;0.87;;
12385;SDS011;6257;57.634;18.310;2023-03-15T06:24:57;5.03;;;0.90;;
12385;SDS011;6257;57.634;18.310;2023-03-15T06:27:25;1.53;;;0.77;;
12385;SDS011;6257;57.634;18.310;2023-03-15T06:29:52;2.37;;;1.00;;
12385;SDS011;6257;57.634;18.310;2023-03-15T06:32:20;2.90;;;0.80;;
12385;SDS011;6257;57.634;18.310;2023-03-15T06:34:47;5.73;;;1.17;;
12385;SDS011;6257;57.634;18.310;2023-03-15T06:37:14;2.37;;;0.63;;
12385;SDS011;6257;57.634;18.310;2023-03-15T06:39:41;3.77;;;0.90;;
12385;SDS011;6257;57.634;18.310;2023-03-15T06:42:09;7.27;;;1.10;;
12385;SDS011;6257;57.634;18.310;2023-03-15T06:44:38;3.13;;;1.00;;
12385;SDS011;6257;57.634;18.310;2023-03-15T06:47:06;6.70;;;1.10;;
12385;SDS011;6257;57.634;18.310;2023-03-15T06:49:33;7.13;;;1.20;;
12385;SDS011;6257;57.634;18.310;2023-03-15T06:52:00;4.67;;;1.57;;
12385;SDS011;6257;57.634;18.310;2023-03-15T06:54:28;6.20;;;1.10;;
12385;SDS011;6257;57.634;18.310;2023-03-15T06:56:55;6.67;;;1.63;;
12385;SDS011;6257;57.634;18.310;2023-03-15T06:59:23;3.67;;;1.10;;
12385;SDS011;6257;57.634;18.310;2023-03-15T07:01:51;4.00;;;1.00;;
12385;SDS011;6257;57.634;18.310;2023-03-15T07:04:19;3.27;;;1.00;;
12385;SDS011;6257;57.634;18.310;2023-03-15T07:06:46;1.87;;;0.80;;
12385;SDS011;6257;57.634;18.310;2023-03-15T07:09:13;7.13;;;1.20;;
12385;SDS011;6257;57.634;18.310;2023-03-15T07:11:40;1.83;;;0.80;;
12385;SDS011;6257;57.634;18.310;2023-03-15T07:14:07;6.43;;;1.10;;
12385;SDS011;6257;57.634;18.310;2023-03-15T07:16:34;4.67;;;1.07;;
12385;SDS011;6257;57.634;18.310;2023-03-15T07:19:03;3.93;;;1.17;;
12385;SDS011;6257;57.634;18.310;2023-03-15T07:21:30;4.87;;;1.00;;
12385;SDS011;6257;57.634;18.310;2023-03-15T07:23:57;2.00;;;0.90;;
12385;SDS011;6257;57.634;18.310;2023-03-15T07:26:24;4.03;;;1.10;;
12385;SDS011;6257;57.634;18.310;2023-03-15T07:28:51;7.87;;;1.37;;
12385;SDS011;6257;57.634;18.310;2023-03-15T07:31:18;3.70;;;1.13;;
12385;SDS011;6257;57.634;18.310;2023-03-15T07:33:46;4.53;;;1.20;;
12385;SDS011;6257;57.634;18.310;2023-03-15T07:36:15;3.77;;;0.90;;
12385;SDS011;6257;57.634;18.310;2023-03-15T07:38:42;6.10;;;1.00;;
12385;SDS011;6257;57.634;18.310;2023-03-15T07:41:09;4.63;;;1.67;;
12385;SDS011;6257;57.634;18.310;2023-03-15T07:43:37;6.53;;;0.97;;
12385;SDS011;6257;57.634;18.310;2023-03-15T07:46:04;5.10;;;0.90;;
12385;SDS011;6257;57.634;18.310;2023-03-15T07:48:31;3.60;;;0.80;;
12385;SDS011;6257;57.634;18.310;2023-03-15T07:50:58;3.33;;;1.00;;
12385;SDS011;6257;57.634;18.310;2023-03-15T07:53:27;5.20;;;1.00;;
12385;SDS011;6257;57.634;18.310;2023-03-15T07:55:54;7.60;;;1.03;;
12385;SDS011;6257;57.634;18.310;2023-03-15T07:58:21;5.70;;;1.17;;
12385;SDS011;6257;57.634;18.310;2023-03-15T08:00:48;4.27;;;1.13;;
12385;SDS011;6257;57.634;18.310;2023-03-15T08:03:15;3.73;;;0.97;;
12385;SDS011;6257;57.634;18.310;2023-03-15T08:05:42;6.30;;;1.20;;
12385;SDS011;6257;57.634;18.310;2023-03-15T08:08:10;3.37;;;1.00;;
12385;SDS011;6257;57.634;18.310;2023-03-15T08:10:38;5.10;;;1.17;;
12385;SDS011;6257;57.634;18.310;2023-03-15T08:13:05;4.37;;;0.83;;
12385;SDS011;6257;57.634;18.310;2023-03-15T08:15:33;5.33;;;0.90;;
12385;SDS011;6257;57.634;18.310;2023-03-15T08:18:00;5.07;;;1.37;;
12385;SDS011;6257;57.634;18.310;2023-03-15T08:20:27;4.77;;;1.10;;
12385;SDS011;6257;57.634;18.310;2023-03-15T08:22:58;3.87;;;1.10;;
12385;SDS011;6257;57.634;18.310;2023-03-15T08:25:25;3.40;;;0.90;;
12385;SDS011;6257;57.634;18.310;2023-03-15T08:27:54;6.10;;;1.23;;
12385;SDS011;6257;57.634;18.310;2023-03-15T08:30:22;1.73;;;0.83;;
12385;SDS011;6257;57.634;18.310;2023-03-15T08:32:49;5.43;;;1.43;;
12385;SDS011;6257;57.634;18.310;2023-03-15T08:35:17;5.07;;;1.30;;
12385;SDS011;6257;57.634;18.310;2023-03-15T08:37:45;6.50;;;1.17;;
12385;SDS011;6257;57.634;18.310;2023-03-15T08:40:13;4.17;;;0.90;;
12385;SDS011;6257;57.634;18.310;2023-03-15T08:42:43;4.37;;;1.13;;
12385;SDS011;6257;57.634;18.310;2023-03-15T08:45:11;5.47;;;1.40;;
12385;SDS011;6257;57.634;18.310;2023-03-15T08:47:40;7.43;;;1.20;;
12385;SDS011;6257;57.634;18.310;2023-03-15T08:50:07;3.80;;;1.07;;
12385;SDS011;6257;57.634;18.310;2023-03-15T08:52:37;6.73;;;1.10;;
12385;SDS011;6257;57.634;18.310;2023-03-15T08:55:05;7.80;;;1.37;;
12385;SDS011;6257;57.634;18.310;2023-03-15T08:57:32;3.73;;;1.17;;
12385;SDS011;6257;57.634;18.310;2023-03-15T09:00:00;18.30;;;1.50;;
12385;SDS011;6257;57.634;18.310;2023-03-15T09:02:34;6.90;;;1.53;;
12385;SDS011;6257;57.634;18.310;2023-03-15T09:05:03;5.27;;;0.90;;
12385;SDS011;6257;57.634;18.310;2023-03-15T09:07:31;5.00;;;0.90;;
12385;SDS011;6257;57.634;18.310;2023-03-15T09:09:58;6.37;;;1.30;;
12385;SDS011;6257;57.634;18.310;2023-03-15T09:12:25;10.83;;;1.30;;
12385;SDS011;6257;57.634;18.310;2023-03-15T09:14:53;2.50;;;1.00;;
12385;SDS011;6257;57.634;18.310;2023-03-15T09:17:20;8.87;;;1.43;;
12385;SDS011;6257;57.634;18.310;2023-03-15T09:19:48;5.40;;;1.40;;
12385;SDS011;6257;57.634;18.310;2023-03-15T09:22:16;5.10;;;1.10;;
12385;SDS011;6257;57.634;18.310;2023-03-15T09:24:43;4.57;;;1.00;;
12385;SDS011;6257;57.634;18.310;2023-03-15T09:27:10;9.40;;;1.27;;
12385;SDS011;6257;57.634;18.310;2023-03-15T09:29:38;4.33;;;1.13;;
12385;SDS011;6257;57.634;18.310;2023-03-15T09:32:05;4.57;;;1.20;;
12385;SDS011;6257;57.634;18.310;2023-03-15T09:34:33;6.30;;;1.67;;
12385;SDS011;6257;57.634;18.310;2023-03-15T09:37:02;6.07;;;1.43;;
12385;SDS011;6257;57.634;18.310;2023-03-15T09:39:30;9.40;;;1.60;;
12385;SDS011;6257;57.634;18.310;2023-03-15T09:41:57;2.03;;;1.03;;
12385;SDS011;6257;57.634;18.310;2023-03-15T09:44:35;4.97;;;1.10;;
12385;SDS011;6257;57.634;18.310;2023-03-15T09:47:12;3.27;;;1.53;;
12385;SDS011;6257;57.634;18.310;2023-03-15T09:49:54;4.70;;;1.43;;
12385;SDS011;6257;57.634;18.310;2023-03-15T09:52:31;4.63;;;1.13;;
12385;SDS011;6257;57.634;18.310;2023-03-15T09:55:04;6.60;;;1.30;;
12385;SDS011;6257;57.634;18.310;2023-03-15T09:57:39;3.83;;;1.30;;
12385;SDS011;6257;57.634;18.310;2023-03-15T10:00:13;6.70;;;1.30;;
12385;SDS011;6257;57.634;18.310;2023-03-15T10:02:46;6.53;;;1.47;;
12385;SDS011;6257;57.634;18.310;2023-03-15T10:05:21;4.80;;;1.33;;
12385;SDS011;6257;57.634;18.310;2023-03-15T10:07:58;6.90;;;1.40;;
12385;SDS011;6257;57.634;18.310;2023-03-15T10:10:27;3.13;;;1.40;;
12385;SDS011;6257;57.634;18.310;2023-03-15T10:13:01;5.17;;;1.10;;
12385;SDS011;6257;57.634;18.310;2023-03-15T10:15:41;8.03;;;1.50;;
12385;SDS011;6257;57.634;18.310;2023-03-15T10:18:24;6.30;;;1.40;;
12385;SDS011;6257;57.634;18.310;2023-03-15T10:21:02;5.90;;;1.70;;
12385;SDS011;6257;57.634;18.310;2023-03-15T10:23:40;3.80;;;1.20;;
12385;SDS011;6257;57.634;18.310;2023-03-15T10:26:13;4.43;;;1.30;;
12385;SDS011;6257;57.634;18.310;2023-03-15T10:28:44;7.27;;;1.40;;
12385;SDS011;6257;57.634;18.310;2023-03-15T10:31:12;4.87;;;1.40;;
12385;SDS011;6257;57.634;18.310;2023-03-15T10:33:41;7.37;;;1.30;;
12385;SDS011;6257;57.634;18.310;2023-03-15T10:36:13;5.07;;;1.50;;
12385;SDS011;6257;57.634;18.310;2023-03-15T10:38:43;5.30;;;1.30;;
12385;SDS011;6257;57.634;18.310;2023-03-15T10:41:13;9.27;;;1.73;;
12385;SDS011;6257;57.634;18.310;2023-03-15T10:43:55;8.13;;;1.23;;
12385;SDS011;6257;57.634;18.310;2023-03-15T10:46:25;5.30;;;1.33;;
12385;SDS011;6257;57.634;18.310;2023-03-15T10:48:55;4.73;;;1.30;;
12385;SDS011;6257;57.634;18.310;2023-03-15T10:51:24;7.80;;;2.00;;
12385;SDS011;6257;57.634;18.310;2023-03-15T10:53:56;6.37;;;1.20;;
12385;SDS011;6257;57.634;18.310;2023-03-15T10:56:26;7.17;;;1.40;;
12385;SDS011;6257;57.634;18.310;2023-03-15T10:58:56;8.93;;;1.77;;
12385;SDS011;6257;57.634;18.310;2023-03-15T11:01:26;9.70;;;1.60;;
12385;SDS011;6257;57.634;18.310;2023-03-15T11:03:59;5.37;;;1.53;;
12385;SDS011;6257;57.634;18.310;2023-03-15T11:06:27;10.87;;;1.70;;
12385;SDS011;6257;57.634;18.310;2023-03-15T11:09:10;4.93;;;1.13;;
12385;SDS011;6257;57.634;18.310;2023-03-15T11:11:57;6.43;;;1.40;;
12385;SDS011;6257;57.634;18.310;2023-03-15T11:14:26;7.40;;;1.27;;
12385;SDS011;6257;57.634;18.310;2023-03-15T11:17:01;5.77;;;1.27;;
12385;SDS011;6257;57.634;18.310;2023-03-15T11:19:30;5.10;;;1.13;;
12385;SDS011;6257;57.634;18.310;2023-03-15T11:22:01;4.33;;;1.10;;
12385;SDS011;6257;57.634;18.310;2023-03-15T11:24:31;6.27;;;1.40;;
12385;SDS011;6257;57.634;18.310;2023-03-15T11:27:00;5.57;;;1.07;;
12385;SDS011;6257;57.634;18.310;2023-03-15T11:29:29;6.37;;;1.23;;
12385;SDS011;6257;57.634;18.310;2023-03-15T11:31:57;3.77;;;1.10;;
12385;SDS011;6257;57.634;18.310;2023-03-15T11:34:39;5.60;;;1.03;;
12385;SDS011;6257;57.634;18.310;2023-03-15T11:37:14;6.13;;;1.13;;
12385;SDS011;6257;57.634;18.310;2023-03-15T11:39:46;6.70;;;1.10;;
12385;SDS011;6257;57.634;18.310;2023-03-15T11:42:20;10.03;;;1.30;;
12385;SDS011;6257;57.634;18.310;2023-03-15T11:44:51;3.60;;;0.90;;
12385;SDS011;6257;57.634;18.310;2023-03-15T11:47:25;8.60;;;1.63;;
12385;SDS011;6257;57.634;18.310;2023-03-15T11:50:01;4.83;;;1.03;;
12385;SDS011;6257;57.634;18.310;2023-03-15T11:52:29;5.23;;;0.97;;
12385;SDS011;6257;57.634;18.310;2023-03-15T11:54:57;4.60;;;1.13;;
12385;SDS011;6257;57.634;18.310;2023-03-15T11:57:34;7.57;;;1.47;;
12385;SDS011;6257;57.634;18.310;2023-03-15T12:06:12;7.57;;;1.27;;
12385;SDS011;6257;57.634;18.310;2023-03-15T12:09:00;4.10;;;1.20;;
12385;SDS011;6257;57.634;18.310;2023-03-15T12:11:37;3.37;;;1.20;;
12385;SDS011;6257;57.634;18.310;2023-03-15T12:20:12;6.40;;;1.33;;
12385;SDS011;6257;57.634;18.310;2023-03-15T12:22:47;6.03;;;1.50;;
12385;SDS011;6257;57.634;18.310;2023-03-15T12:25:18;5.07;;;0.80;;
12385;SDS011;6257;57.634;18.310;2023-03-15T12:28:01;2.27;;;0.80;;
12385;SDS011;6257;57.634;18.310;2023-03-15T12:30:34;2.90;;;1.13;;
12385;SDS011;6257;57.634;18.310;2023-03-15T12:33:04;6.17;;;1.20;;
12385;SDS011;6257;57.634;18.310;2023-03-15T12:35:41;7.03;;;1.50;;
12385;SDS011;6257;57.634;18.310;2023-03-15T12:38:10;5.03;;;1.17;;
12385;SDS011;6257;57.634;18.310;2023-03-15T12:40:48;7.00;;;1.00;;
12385;SDS011;6257;57.634;18.310;2023-03-15T12:43:35;1.63;;;0.90;;
12385;SDS011;6257;57.634;18.310;2023-03-15T12:46:05;8.33;;;1.30;;
12385;SDS011;6257;57.634;18.310;2023-03-15T12:48:32;4.03;;;1.00;;
12385;SDS011;6257;57.634;18.310;2023-03-15T12:54:01;6.23;;;1.60;;
12385;SDS011;6257;57.634;18.310;2023-03-15T12:56:33;3.33;;;1.20;;
12385;SDS011;6257;57.634;18.310;2023-03-15T12:59:18;6.23;;;1.10;;
12385;SDS011;6257;57.634;18.310;2023-03-15T13:01:50;6.80;;;1.10;;
12385;SDS011;6257;57.634;18.310;2023-03-15T13:04:17;5.77;;;1.00;;
12385;SDS011;6257;57.634;18.310;2023-03-15T13:06:49;4.73;;;1.10;;
12385;SDS011;6257;57.634;18.310;2023-03-15T13:09:44;7.20;;;1.20;;
12385;SDS011;6257;57.634;18.310;2023-03-15T13:12:22;2.13;;;1.00;;
12385;SDS011;6257;57.634;18.310;2023-03-15T13:14:56;5.83;;;1.40;;
12385;SDS011;6257;57.634;18.310;2023-03-15T13:17:31;4.73;;;1.03;;
12385;SDS011;6257;57.634;18.310;2023-03-15T13:20:10;4.00;;;1.07;;
12385;SDS011;6257;57.634;18.310;2023-03-15T13:22:46;4.67;;;0.83;;
12385;SDS011;6257;57.634;18.310;2023-03-15T13:25:21;6.30;;;1.47;;
12385;SDS011;6257;57.634;18.310;2023-03-15T13:27:57;3.23;;;1.20;;
12385;SDS011;6257;57.634;18.310;2023-03-15T13:30:34;5.67;;;1.40;;
12385;SDS011;6257;57.634;18.310;2023-03-15T13:33:16;5.13;;;0.93;;
12385;SDS011;6257;57.634;18.310;2023-03-15T13:35:52;6.30;;;1.60;;
12385;SDS011;6257;57.634;18.310;2023-03-15T13:38:25;5.90;;;1.57;;
12385;SDS011;6257;57.634;18.310;2023-03-15T13:40:56;10.53;;;1.53;;
12385;SDS011;6257;57.634;18.310;2023-03-15T13:43:24;8.93;;;1.17;;
12385;SDS011;6257;57.634;18.310;2023-03-15T13:45:56;4.50;;;1.20;;
12385;SDS011;6257;57.634;18.310;2023-03-15T13:48:28;8.90;;;1.43;;
12385;SDS011;6257;57.634;18.310;2023-03-15T13:50:59;7.10;;;1.47;;
12385;SDS011;6257;57.634;18.310;2023-03-15T13:53:30;5.63;;;1.07;;
12385;SDS011;6257;57.634;18.310;2023-03-15T13:56:00;8.93;;;1.50;;
12385;SDS011;6257;57.634;18.310;2023-03-15T13:58:28;6.73;;;1.20;;
12385;SDS011;6257;57.634;18.310;2023-03-15T14:00:59;5.33;;;1.23;;
12385;SDS011;6257;57.634;18.310;2023-03-15T14:03:29;2.77;;;1.00;;
12385;SDS011;6257;57.634;18.310;2023-03-15T14:05:57;6.93;;;1.43;;
12385;SDS011;6257;57.634;18.310;2023-03-15T14:08:25;4.67;;;1.07;;
12385;SDS011;6257;57.634;18.310;2023-03-15T14:10:56;4.77;;;0.80;;
12385;SDS011;6257;57.634;18.310;2023-03-15T14:13:26;7.13;;;1.20;;
12385;SDS011;6257;57.634;18.310;2023-03-15T14:15:58;3.10;;;1.00;;
12385;SDS011;6257;57.634;18.310;2023-03-15T14:18:31;2.47;;;0.90;;
12385;SDS011;6257;57.634;18.310;2023-03-15T14:21:01;7.17;;;1.40;;
12385;SDS011;6257;57.634;18.310;2023-03-15T14:23:34;3.27;;;1.20;;
12385;SDS011;6257;57.634;18.310;2023-03-15T14:26:15;5.87;;;1.13;;
12385;SDS011;6257;57.634;18.310;2023-03-15T14:28:47;7.03;;;1.00;;
12385;SDS011;6257;57.634;18.310;2023-03-15T14:31:21;5.70;;;1.17;;
12385;SDS011;6257;57.634;18.310;2023-03-15T14:33:51;2.17;;;1.00;;
12385;SDS011;6257;57.634;18.310;2023-03-15T14:36:20;3.67;;;1.20;;
12385;SDS011;6257;57.634;18.310;2023-03-15T14:38:49;9.57;;;1.23;;
12385;SDS011;6257;57.634;18.310;2023-03-15T14:41:21;4.70;;;1.23;;
12385;SDS011;6257;57.634;18.310;2023-03-15T14:43:50;9.20;;;1.40;;
12385;SDS011;6257;57.634;18.310;2023-03-15T14:46:18;6.77;;;1.37;;
12385;SDS011;6257;57.634;18.310;2023-03-15T14:48:46;7.87;;;1.20;;
12385;SDS011;6257;57.634;18.310;2023-03-15T14:51:15;7.00;;;1.20;;
12385;SDS011;6257;57.634;18.310;2023-03-15T14:53:45;8.57;;;1.20;;
12385;SDS011;6257;57.634;18.310;2023-03-15T14:56:14;5.17;;;1.20;;
12385;SDS011;6257;57.634;18.310;2023-03-15T14:58:41;11.50;;;1.20;;
12385;SDS011;6257;57.634;18.310;2023-03-15T15:01:09;10.63;;;1.40;;
12385;SDS011;6257;57.634;18.310;2023-03-15T15:03:39;5.90;;;1.10;;
12385;SDS011;6257;57.634;18.310;2023-03-15T15:06:13;6.63;;;1.23;;
12385;SDS011;6257;57.634;18.310;2023-03-15T15:08:42;6.43;;;1.00;;
12385;SDS011;6257;57.634;18.310;2023-03-15T15:11:11;4.63;;;1.00;;
12385;SDS011;6257;57.634;18.310;2023-03-15T15:13:38;5.67;;;1.03;;
12385;SDS011;6257;57.634;18.310;2023-03-15T15:16:06;5.37;;;1.03;;
12385;SDS011;6257;57.634;18.310;2023-03-15T15:18:33;3.40;;;0.93;;